createdAt,value
2023-01-03T00:02:10.376Z,8.43
2023-01-03T00:04:37.451Z,8.57
2023-01-03T00:07:04.339Z,8.47
2023-01-03T00:09:31.175Z,8.35
2023-01-03T00:12:16.474Z,8.39
2023-01-03T00:14:43.964Z,8.49
2023-01-03T00:17:12.064Z,8.54
2023-01-03T00:19:40.541Z,8.36
2023-01-03T00:22:07.898Z,8.29
2023-01-03T00:24:34.764Z,8.57
2023-01-03T00:27:01.917Z,8.38
2023-01-03T00:29:28.733Z,8.33
2023-01-03T00:31:55.721Z,8.30
2023-01-03T00:34:22.560Z,8.36
2023-01-03T00:36:49.376Z,8.27
2023-01-03T00:39:16.175Z,8.32
2023-01-03T00:41:43.228Z,8.26
2023-01-03T00:44:11.939Z,8.24
2023-01-03T00:46:39.202Z,8.31
2023-01-03T00:49:07.349Z,8.27
2023-01-03T00:51:35.632Z,8.16
2023-01-03T00:54:03.427Z,8.05
2023-01-03T00:56:40.581Z,8.29
2023-01-03T00:59:08.147Z,8.19
2023-01-03T01:01:45.839Z,8.06
2023-01-03T01:04:15.083Z,8.05
2023-01-03T01:06:43.268Z,7.88
2023-01-03T01:09:11.882Z,7.95
2023-01-03T01:11:41.084Z,7.97
2023-01-03T01:14:19.758Z,7.95
2023-01-03T01:16:48.000Z,8.00
2023-01-03T01:19:15.573Z,7.93
2023-01-03T01:21:42.811Z,7.99
2023-01-03T01:24:12.881Z,7.85
2023-01-03T01:26:44.650Z,7.98
2023-01-03T01:29:12.342Z,7.93
2023-01-03T01:31:40.594Z,7.82
2023-01-03T01:34:07.972Z,8.02
2023-01-03T01:36:39.524Z,7.94
2023-01-03T01:39:07.844Z,8.04
2023-01-03T01:41:54.188Z,7.90
2023-01-03T01:44:40.384Z,7.87
2023-01-03T01:47:11.559Z,7.85
2023-01-03T01:49:38.401Z,7.82
2023-01-03T01:52:06.190Z,7.84
2023-01-03T01:54:33.836Z,7.84
2023-01-03T01:57:00.680Z,7.85
2023-01-03T01:59:28.364Z,7.91
2023-01-03T02:01:55.725Z,7.87
2023-01-03T02:04:30.842Z,7.92
2023-01-03T02:06:57.841Z,7.89
2023-01-03T02:09:24.692Z,7.87
2023-01-03T02:12:18.191Z,7.88
2023-01-03T02:14:54.217Z,7.88
2023-01-03T02:17:30.545Z,7.88
2023-01-03T02:20:10.080Z,8.04
2023-01-03T02:22:55.566Z,7.86
2023-01-03T02:25:38.838Z,7.85
2023-01-03T02:28:08.443Z,7.85
2023-01-03T02:30:35.265Z,7.71
2023-01-03T02:33:20.923Z,7.80
2023-01-03T02:35:59.698Z,7.73
2023-01-03T02:38:35.140Z,7.85
2023-01-03T02:41:20.537Z,7.89
2023-01-03T02:43:50.078Z,8.15
2023-01-03T02:46:23.698Z,7.98
2023-01-03T02:49:00.929Z,7.98
2023-01-03T02:51:32.547Z,7.92
2023-01-03T02:54:00.671Z,7.92
2023-01-03T02:56:30.433Z,8.22
2023-01-03T02:59:00.267Z,8.20
2023-01-03T03:01:29.152Z,8.07
2023-01-03T03:03:56.859Z,8.03
2023-01-03T03:06:30.940Z,8.09
2023-01-03T03:08:58.284Z,8.25
2023-01-03T03:11:46.528Z,8.20
2023-01-03T03:14:17.795Z,8.24
2023-01-03T03:16:47.805Z,8.09
2023-01-03T03:19:39.740Z,8.00
2023-01-03T03:22:45.741Z,7.99
2023-01-03T03:25:25.343Z,7.96
2023-01-03T03:28:14.738Z,8.03
2023-01-03T03:30:43.087Z,7.97
2023-01-03T03:33:12.648Z,7.92
2023-01-03T03:35:44.231Z,8.15
2023-01-03T03:38:13.358Z,8.03
2023-01-03T03:41:04.150Z,8.17
2023-01-03T03:43:52.397Z,8.18
2023-01-03T03:46:23.086Z,8.10
2023-01-03T03:49:27.042Z,8.24
2023-01-03T03:51:56.155Z,8.15
2023-01-03T03:54:23.951Z,8.02
2023-01-03T03:56:54.623Z,7.96
2023-01-03T03:59:23.825Z,7.84
2023-01-03T04:01:51.176Z,7.96
2023-01-03T04:04:24.578Z,7.88
2023-01-03T04:06:52.247Z,7.79
2023-01-03T04:09:19.506Z,7.81
2023-01-03T04:11:46.445Z,7.82
2023-01-03T04:14:13.282Z,7.96
2023-01-03T04:16:41.174Z,7.88
2023-01-03T04:19:08.459Z,7.78
2023-01-03T04:21:36.595Z,7.74
2023-01-03T04:24:06.822Z,7.66
2023-01-03T04:26:33.629Z,7.59
2023-01-03T04:29:00.411Z,7.54
2023-01-03T04:31:27.519Z,7.48
2023-01-03T04:33:54.397Z,7.48
2023-01-03T04:36:21.360Z,7.51
2023-01-03T04:38:48.194Z,7.50
2023-01-03T04:41:15.034Z,7.51
2023-01-03T04:44:00.316Z,7.52
2023-01-03T04:46:27.964Z,7.52
2023-01-03T04:48:54.862Z,7.53
2023-01-03T04:51:21.748Z,7.52
2023-01-03T04:53:48.585Z,7.57
2023-01-03T04:56:15.526Z,7.57
2023-01-03T04:58:42.975Z,7.54
2023-01-03T05:01:10.713Z,6.59
2023-01-03T05:03:38.095Z,7.51
2023-01-03T05:06:07.025Z,7.51
2023-01-03T05:08:35.231Z,7.51
2023-01-03T05:11:02.331Z,7.48
2023-01-03T05:13:29.141Z,7.48
2023-01-03T05:15:55.951Z,7.52
2023-01-03T05:18:22.967Z,7.53
2023-01-03T05:21:08.590Z,7.52
2023-01-03T05:23:54.236Z,7.45
2023-01-03T05:26:21.707Z,7.43
2023-01-03T05:28:50.753Z,7.34
2023-01-03T05:31:17.781Z,7.31
2023-01-03T05:33:44.766Z,7.30
2023-01-03T05:36:11.651Z,7.26
2023-01-03T05:38:38.548Z,7.28
2023-01-03T05:41:05.872Z,7.33
2023-01-03T05:43:32.933Z,7.27
2023-01-03T05:46:00.097Z,7.35
2023-01-03T05:48:27.226Z,7.38
2023-01-03T05:50:55.900Z,7.36
2023-01-03T05:53:22.748Z,7.36
2023-01-03T05:55:49.589Z,7.38
2023-01-03T05:58:16.394Z,7.39
2023-01-03T06:00:43.447Z,7.36
2023-01-03T06:03:10.391Z,7.36
2023-01-03T06:05:37.269Z,7.32
2023-01-03T06:08:04.155Z,7.31
2023-01-03T06:10:30.981Z,7.32
2023-01-03T06:12:58.100Z,7.31
2023-01-03T06:15:24.998Z,7.28
2023-01-03T06:17:54.791Z,7.30
2023-01-03T06:20:21.716Z,7.27
2023-01-03T06:22:48.700Z,7.22
2023-01-03T06:25:15.574Z,7.17
2023-01-03T06:27:42.409Z,7.18
2023-01-03T06:30:09.710Z,7.15
2023-01-03T06:32:36.715Z,7.12
2023-01-03T06:35:03.846Z,7.12
2023-01-03T06:37:30.688Z,7.11
2023-01-03T06:39:57.501Z,7.11
2023-01-03T06:42:43.300Z,7.09
2023-01-03T06:45:29.883Z,7.07
2023-01-03T06:48:15.484Z,7.04
2023-01-03T06:51:01.473Z,7.02
2023-01-03T06:53:32.010Z,6.99
2023-01-03T06:55:59.308Z,6.91
2023-01-03T06:58:26.247Z,6.86
2023-01-03T07:00:53.386Z,6.83
2023-01-03T07:03:20.593Z,6.73
2023-01-03T07:05:47.510Z,6.73
2023-01-03T07:08:14.330Z,6.69
2023-01-03T07:10:41.229Z,6.67
2023-01-03T07:13:26.985Z,6.62
2023-01-03T07:15:53.951Z,6.59
2023-01-03T07:18:20.977Z,6.53
2023-01-03T07:20:47.812Z,6.46
2023-01-03T07:23:14.795Z,6.40
2023-01-03T07:25:41.789Z,6.21
2023-01-03T07:28:12.384Z,6.32
2023-01-03T07:30:39.877Z,6.14
2023-01-03T07:33:07.563Z,6.07
2023-01-03T07:35:35.441Z,6.06
2023-01-03T07:38:05.021Z,6.09
2023-01-03T07:40:32.196Z,6.09
2023-01-03T07:43:17.891Z,5.94
2023-01-03T07:45:45.454Z,5.91
2023-01-03T07:48:12.562Z,5.81
2023-01-03T07:50:39.640Z,5.79
2023-01-03T07:53:07.823Z,5.73
2023-01-03T07:55:35.770Z,5.70
2023-01-03T07:58:02.723Z,5.61
2023-01-03T08:00:29.538Z,5.63
2023-01-03T08:02:56.679Z,5.56
2023-01-03T08:05:24.117Z,5.55
2023-01-03T08:07:51.756Z,5.54
2023-01-03T08:10:37.786Z,5.55
2023-01-03T08:13:17.424Z,5.55
2023-01-03T08:15:45.663Z,5.68
2023-01-03T08:18:12.632Z,5.61
2023-01-03T08:20:39.721Z,5.88
2023-01-03T08:23:06.612Z,5.77
2023-01-03T08:25:33.466Z,5.90
2023-01-03T08:28:00.957Z,5.86
2023-01-03T08:30:29.793Z,5.83
2023-01-03T08:32:59.112Z,5.89
2023-01-03T08:35:28.334Z,5.95
2023-01-03T08:37:55.357Z,6.19
2023-01-03T08:40:22.265Z,6.21
2023-01-03T08:42:49.203Z,6.29
2023-01-03T08:45:17.622Z,6.45
2023-01-03T08:47:45.537Z,6.53
2023-01-03T08:50:12.476Z,6.54
2023-01-03T08:52:42.446Z,6.46
2023-01-03T08:55:09.603Z,6.59
2023-01-03T08:57:36.756Z,6.54
2023-01-03T09:00:05.603Z,6.51
2023-01-03T09:02:36.558Z,6.56
2023-01-03T09:05:03.918Z,6.54
2023-01-03T09:07:30.728Z,6.55
2023-01-03T09:09:57.551Z,6.71
2023-01-03T09:12:24.359Z,6.67
2023-01-03T09:14:51.158Z,6.75
2023-01-03T09:17:18.066Z,6.79
2023-01-03T09:19:45.117Z,6.85
2023-01-03T09:22:11.917Z,6.76
2023-01-03T09:24:38.819Z,6.69
2023-01-03T09:27:05.652Z,6.78
2023-01-03T09:29:32.458Z,6.69
2023-01-03T09:32:03.137Z,6.77
2023-01-03T09:34:30.119Z,6.83
2023-01-03T09:36:57.099Z,7.14
2023-01-03T09:39:23.908Z,7.42
2023-01-03T09:42:10.743Z,7.73
2023-01-03T09:44:38.609Z,7.88
2023-01-03T09:47:05.627Z,8.04
2023-01-03T09:49:34.305Z,8.30
2023-01-03T09:52:19.884Z,8.49
2023-01-03T09:55:05.517Z,8.51
2023-01-03T09:57:53.512Z,8.64
2023-01-03T10:00:48.283Z,8.67
2023-01-03T10:03:51.159Z,8.68
2023-01-03T10:06:24.954Z,8.93
2023-01-03T10:09:05.715Z,8.91
2023-01-03T10:12:08.008Z,8.24
2023-01-03T10:14:45.480Z,8.88
2023-01-03T10:17:12.365Z,8.65
2023-01-03T10:19:41.952Z,8.72
2023-01-03T10:22:10.483Z,8.86
2023-01-03T10:24:47.585Z,8.93
2023-01-03T10:27:22.221Z,8.97
2023-01-03T10:29:51.911Z,8.91
2023-01-03T10:32:26.703Z,9.49
2023-01-03T10:35:12.320Z,9.27
2023-01-03T10:37:42.300Z,9.29
2023-01-03T10:40:09.719Z,9.22
2023-01-03T10:42:36.597Z,9.30
2023-01-03T10:45:10.116Z,9.45
2023-01-03T10:47:36.971Z,9.51
2023-01-03T10:50:05.212Z,9.34
2023-01-03T10:52:38.277Z,9.44
2023-01-03T10:55:31.510Z,9.56
2023-01-03T10:57:59.843Z,9.49
2023-01-03T11:00:37.184Z,9.48
2023-01-03T11:03:11.178Z,9.74
2023-01-03T11:05:38.994Z,9.75
2023-01-03T11:08:13.380Z,9.82
2023-01-03T11:10:49.228Z,9.78
2023-01-03T11:13:21.446Z,9.76
2023-01-03T11:15:52.966Z,9.63
2023-01-03T11:18:22.813Z,9.52
2023-01-03T11:20:49.768Z,9.66
2023-01-03T11:23:19.726Z,9.70
2023-01-03T11:26:02.654Z,9.59
2023-01-03T11:28:48.159Z,9.74
2023-01-03T11:31:20.967Z,9.67
2023-01-03T11:33:57.189Z,9.70
2023-01-03T11:36:34.139Z,9.71
2023-01-03T11:39:12.775Z,9.74
2023-01-03T11:41:41.726Z,9.78
2023-01-03T11:44:08.560Z,9.85
2023-01-03T11:46:42.883Z,9.63
2023-01-03T11:49:27.618Z,9.64
2023-01-03T11:52:09.770Z,9.61
2023-01-03T11:54:36.591Z,9.59
2023-01-03T11:57:09.900Z,9.51
2023-01-03T11:59:37.017Z,9.58
2023-01-03T12:02:22.620Z,9.66
2023-01-03T12:05:06.192Z,9.71
2023-01-03T12:07:47.722Z,9.78
2023-01-03T12:10:29.891Z,9.57
2023-01-03T12:13:29.137Z,9.43
2023-01-03T12:15:56.646Z,9.39
2023-01-03T12:18:29.779Z,9.48
2023-01-03T12:20:59.341Z,9.40
2023-01-03T12:23:29.168Z,9.42
2023-01-03T12:26:02.387Z,9.46
2023-01-03T12:28:32.872Z,9.56
2023-01-03T12:31:09.607Z,9.56
2023-01-03T12:33:46.431Z,9.63
2023-01-03T12:36:25.255Z,9.77
2023-01-03T12:38:59.629Z,9.86
2023-01-03T12:41:26.434Z,9.95
2023-01-03T12:44:22.540Z,10.00
2023-01-03T12:46:51.222Z,10.08
2023-01-03T12:49:23.337Z,10.07
2023-01-03T12:51:50.162Z,10.00
2023-01-03T12:54:25.224Z,9.88
2023-01-03T12:56:52.079Z,9.86
2023-01-03T12:59:44.671Z,9.85
2023-01-03T13:02:44.096Z,9.95
2023-01-03T13:05:16.748Z,10.03
2023-01-03T13:07:48.639Z,9.97
2023-01-03T13:10:17.650Z,10.01
2023-01-03T13:12:46.987Z,9.97
2023-01-03T13:15:23.051Z,10.05
2023-01-03T13:17:50.024Z,9.82
2023-01-03T13:20:28.071Z,9.90
2023-01-03T13:22:58.784Z,9.70
2023-01-03T13:25:34.512Z,9.70
2023-01-03T13:28:19.378Z,9.74
2023-01-03T13:30:46.637Z,9.95
2023-01-03T13:33:16.465Z,9.39
2023-01-03T13:35:46.257Z,10.08
2023-01-03T13:38:31.661Z,10.26
2023-01-03T13:43:49.921Z,10.35
2023-01-03T13:46:25.907Z,10.20
2023-01-03T13:48:55.203Z,10.21
2023-01-03T13:51:21.994Z,10.06
2023-01-03T13:53:53.373Z,10.03
2023-01-03T13:56:22.685Z,9.92
2023-01-03T13:58:51.468Z,9.88
2023-01-03T14:01:26.154Z,9.83
2023-01-03T14:04:12.818Z,9.97
2023-01-03T14:06:46.135Z,9.73
2023-01-03T14:09:24.367Z,9.75
2023-01-03T14:12:10.200Z,9.92
2023-01-03T14:14:39.400Z,9.80
2023-01-03T14:17:14.836Z,9.74
2023-01-03T14:19:47.954Z,9.76
2023-01-03T14:22:33.228Z,9.70
2023-01-03T14:25:00.226Z,9.67
2023-01-03T14:27:37.785Z,9.60
2023-01-03T14:30:19.030Z,9.48
2023-01-03T14:32:46.022Z,9.35
2023-01-03T14:35:32.525Z,9.36
2023-01-03T14:38:04.710Z,9.34
2023-01-03T14:40:33.462Z,9.34
2023-01-03T14:43:03.391Z,9.42
2023-01-03T14:45:30.244Z,9.36
2023-01-03T14:47:57.188Z,9.26
2023-01-03T14:50:28.373Z,9.33
2023-01-03T14:52:56.715Z,9.31
2023-01-03T14:55:27.227Z,9.24
2023-01-03T14:57:54.608Z,8.99
2023-01-03T15:00:31.856Z,8.96
2023-01-03T15:02:59.985Z,9.05
2023-01-03T15:05:29.531Z,8.91
2023-01-03T15:08:10.141Z,8.89
2023-01-03T15:10:43.409Z,9.01
2023-01-03T15:13:22.147Z,9.01
2023-01-03T15:15:53.536Z,8.93
2023-01-03T15:18:21.621Z,8.91
2023-01-03T15:20:50.603Z,8.87
2023-01-03T15:23:25.797Z,8.77
2023-01-03T15:25:53.108Z,8.82
2023-01-03T15:28:24.092Z,8.76
2023-01-03T15:30:51.560Z,8.81
2023-01-03T15:33:21.089Z,8.71
2023-01-03T15:35:50.369Z,8.66
2023-01-03T15:38:20.256Z,8.56
2023-01-03T15:40:48.929Z,8.57
2023-01-03T15:43:21.780Z,8.44
2023-01-03T15:46:03.272Z,8.49
2023-01-03T15:48:31.624Z,8.35
2023-01-03T15:50:59.521Z,8.26
2023-01-03T15:53:47.677Z,8.16
2023-01-03T15:56:19.267Z,7.96
2023-01-03T15:58:50.375Z,7.99
2023-01-03T16:01:18.242Z,8.03
2023-01-03T16:03:46.364Z,7.84
2023-01-03T16:06:13.337Z,7.85
2023-01-03T16:08:40.603Z,7.80
2023-01-03T16:11:15.624Z,7.73
2023-01-03T16:13:49.179Z,7.75
2023-01-03T16:16:19.251Z,7.73
2023-01-03T16:18:46.335Z,7.64
2023-01-03T16:21:13.523Z,7.61
2023-01-03T16:23:40.829Z,7.74
2023-01-03T16:26:08.108Z,7.74
2023-01-03T16:28:35.367Z,7.73
2023-01-03T16:31:04.153Z,7.75
2023-01-03T16:33:35.039Z,7.72
2023-01-03T16:36:02.373Z,7.72
2023-01-03T16:38:30.614Z,7.64
2023-01-03T16:40:57.634Z,7.66
2023-01-03T16:43:25.653Z,7.64
2023-01-03T16:45:54.311Z,7.55
2023-01-03T16:48:23.184Z,7.48
2023-01-03T16:50:51.940Z,7.48
2023-01-03T16:53:24.556Z,7.51
2023-01-03T16:55:54.565Z,7.50
2023-01-03T16:58:23.827Z,7.48
2023-01-03T17:00:51.126Z,7.49
2023-01-03T17:03:18.323Z,7.41
2023-01-03T17:05:45.811Z,7.26
2023-01-03T17:08:18.232Z,7.18
2023-01-03T17:10:46.805Z,7.09
2023-01-03T17:13:26.218Z,7.01
2023-01-03T17:15:53.803Z,6.95
2023-01-03T17:18:21.967Z,6.94
2023-01-03T17:21:00.119Z,6.85
2023-01-03T17:23:28.236Z,6.84
2023-01-03T17:25:55.561Z,6.77
2023-01-03T17:28:22.528Z,6.74
2023-01-03T17:30:51.115Z,6.71
2023-01-03T17:33:18.126Z,6.74
2023-01-03T17:35:46.034Z,6.68
2023-01-03T17:38:25.761Z,6.63
2023-01-03T17:40:55.192Z,6.62
2023-01-03T17:43:23.808Z,6.59
2023-01-03T17:46:13.185Z,6.60
2023-01-03T17:49:01.802Z,6.48
2023-01-03T17:51:28.659Z,6.59
2023-01-03T17:53:55.734Z,6.46
2023-01-03T17:56:22.604Z,6.42
2023-01-03T17:58:56.023Z,6.37
2023-01-03T18:01:23.515Z,6.44
2023-01-03T18:03:50.704Z,6.49
2023-01-03T18:06:19.977Z,6.43
2023-01-03T18:08:47.684Z,6.37
2023-01-03T18:11:16.168Z,6.38
2023-01-03T18:13:43.677Z,6.38
2023-01-03T18:16:18.724Z,6.38
2023-01-03T18:18:45.806Z,6.34
2023-01-03T18:21:17.638Z,6.29
2023-01-03T18:23:45.113Z,6.31
2023-01-03T18:26:14.478Z,6.32
2023-01-03T18:28:41.920Z,6.33
2023-01-03T18:31:16.849Z,6.36
2023-01-03T18:33:43.828Z,6.46
2023-01-03T18:36:17.051Z,6.55
2023-01-03T18:38:43.915Z,6.48
2023-01-03T18:41:16.895Z,6.62
2023-01-03T18:43:43.752Z,6.55
2023-01-03T18:46:17.668Z,6.53
2023-01-03T18:48:44.538Z,6.41
2023-01-03T18:51:15.641Z,6.38
2023-01-03T18:53:47.467Z,6.39
2023-01-03T18:56:37.403Z,6.29
2023-01-03T18:59:06.859Z,6.31
2023-01-03T19:01:34.020Z,6.27
2023-01-03T19:04:01.116Z,6.18
2023-01-03T19:06:33.607Z,6.20
2023-01-03T19:09:02.587Z,6.23
2023-01-03T19:11:31.789Z,6.48
2023-01-03T19:14:00.998Z,6.46
2023-01-03T19:16:32.117Z,6.40
2023-01-03T19:18:59.547Z,6.57
2023-01-03T19:21:30.112Z,6.58
2023-01-03T19:24:19.697Z,6.71
2023-01-03T19:27:04.086Z,6.57
2023-01-03T19:29:36.931Z,6.53
2023-01-03T19:32:11.774Z,6.52
2023-01-03T19:34:38.603Z,6.52
2023-01-03T19:37:05.467Z,6.49
2023-01-03T19:39:37.454Z,6.52
2023-01-03T19:42:24.333Z,6.58
2023-01-03T19:44:52.847Z,6.51
2023-01-03T19:47:22.667Z,6.59
2023-01-03T19:49:49.526Z,6.63
2023-01-03T19:52:16.866Z,6.59
2023-01-03T19:54:44.320Z,6.50
2023-01-03T19:57:21.423Z,6.48
2023-01-03T19:59:53.224Z,6.53
2023-01-03T20:02:32.261Z,6.53
2023-01-03T20:04:59.611Z,6.46
2023-01-03T20:07:26.563Z,6.48
2023-01-03T20:09:53.516Z,6.47
2023-01-03T20:12:23.770Z,6.43
2023-01-03T20:14:51.382Z,6.52
2023-01-03T20:17:22.346Z,6.56
2023-01-03T20:19:49.808Z,6.59
2023-01-03T20:22:44.953Z,6.67
2023-01-03T20:25:04.693Z,6.59
2023-01-03T20:27:31.528Z,6.55
2023-01-03T20:29:58.377Z,6.55
2023-01-03T20:32:25.268Z,6.57
2023-01-03T20:34:52.152Z,6.52
2023-01-03T20:37:25.889Z,6.45
2023-01-03T20:39:53.116Z,6.51
2023-01-03T20:42:24.660Z,6.53
2023-01-03T20:44:51.607Z,6.67
2023-01-03T20:47:21.247Z,6.78
2023-01-03T20:49:48.425Z,6.77
2023-01-03T20:52:16.283Z,6.80
2023-01-03T20:54:43.634Z,6.88
2023-01-03T20:57:14.601Z,6.77
2023-01-03T20:59:41.820Z,6.65
2023-01-03T21:02:12.311Z,6.70
2023-01-03T21:04:39.552Z,6.56
2023-01-03T21:07:11.540Z,6.64
2023-01-03T21:09:38.870Z,6.63
2023-01-03T21:12:05.762Z,6.74
2023-01-03T21:14:32.640Z,6.67
2023-01-03T21:16:59.565Z,6.73
2023-01-03T21:19:26.539Z,6.59
2023-01-03T21:21:54.195Z,6.53
2023-01-03T21:24:22.673Z,6.57
2023-01-03T21:26:49.630Z,6.60
2023-01-03T21:29:16.538Z,6.57
2023-01-03T21:31:43.550Z,6.51
2023-01-03T21:34:16.377Z,6.53
2023-01-03T21:36:43.349Z,6.40
2023-01-03T21:39:10.263Z,6.45
2023-01-03T21:41:57.163Z,6.35
2023-01-03T21:44:24.082Z,6.25
2023-01-03T21:46:50.892Z,6.30
2023-01-03T21:49:17.825Z,6.33
2023-01-03T21:51:44.732Z,6.35
2023-01-03T21:54:11.548Z,6.36
2023-01-03T21:56:45.179Z,6.24
2023-01-03T21:59:16.001Z,6.16
2023-01-03T22:02:02.782Z,6.16
2023-01-03T22:04:30.182Z,6.32
2023-01-03T22:07:00.409Z,6.20
2023-01-03T22:09:46.410Z,5.67
2023-01-03T22:12:15.551Z,6.16
2023-01-03T22:14:43.412Z,6.14
2023-01-03T22:17:10.224Z,6.15
2023-01-03T22:19:37.094Z,6.18
2023-01-03T22:22:04.850Z,6.09
2023-01-03T22:24:31.773Z,6.11
2023-01-03T22:26:58.632Z,6.06
2023-01-03T22:29:25.684Z,6.22
2023-01-03T22:31:52.634Z,6.09
2023-01-03T22:34:19.509Z,6.24
2023-01-03T22:36:46.383Z,6.10
2023-01-03T22:39:13.272Z,6.11
2023-01-03T22:41:40.060Z,6.08
2023-01-03T22:44:06.953Z,5.56
2023-01-03T22:46:33.805Z,6.01
2023-01-03T22:49:00.681Z,5.93
2023-01-03T22:51:27.542Z,5.95
2023-01-03T22:53:54.402Z,5.92
2023-01-03T22:56:21.233Z,5.87
2023-01-03T22:58:48.070Z,5.89
2023-01-03T23:01:16.211Z,5.87
2023-01-03T23:03:47.160Z,5.89
2023-01-03T23:06:15.610Z,5.85
2023-01-03T23:08:42.555Z,5.81
2023-01-03T23:11:34.219Z,5.89
2023-01-03T23:14:03.206Z,5.80
2023-01-03T23:16:31.095Z,5.87
2023-01-03T23:18:58.428Z,6.00
2023-01-03T23:21:25.236Z,5.88
2023-01-03T23:23:52.096Z,5.89
2023-01-03T23:26:18.923Z,5.97
2023-01-03T23:28:45.731Z,5.87
2023-01-03T23:31:12.572Z,5.86
2023-01-03T23:33:39.430Z,5.92
2023-01-03T23:36:07.418Z,6.04
2023-01-03T23:38:34.255Z,6.06
2023-01-03T23:41:05.692Z,6.08
2023-01-03T23:43:33.070Z,6.14
2023-01-03T23:45:59.909Z,6.16
2023-01-03T23:48:26.880Z,6.22
2023-01-03T23:50:53.832Z,6.19
2023-01-03T23:53:21.532Z,6.17
2023-01-03T23:55:48.646Z,6.17
2023-01-03T23:58:15.472Z,6.16
